createdAt,value
2017-05-14T00:01:38.048Z,17.20
2017-05-14T00:04:06.328Z,17.20
2017-05-14T00:06:34.992Z,17.20
2017-05-14T00:09:03.277Z,17.20
2017-05-14T00:11:31.583Z,17.20
2017-05-14T00:13:59.877Z,17.20
2017-05-14T00:16:28.174Z,17.20
2017-05-14T00:18:56.468Z,17.20
2017-05-14T00:21:24.762Z,17.20
2017-05-14T00:23:53.049Z,17.20
2017-05-14T00:26:21.365Z,17.20
2017-05-14T00:28:49.671Z,17.20
2017-05-14T00:31:18.700Z,17.20
2017-05-14T00:33:47.000Z,17.10
2017-05-14T00:36:15.377Z,17.10
2017-05-14T00:38:43.659Z,17.00
2017-05-14T00:41:11.964Z,17.00
2017-05-14T00:43:40.270Z,17.00
2017-05-14T00:46:08.565Z,17.00
2017-05-14T00:48:37.750Z,16.90
2017-05-14T00:51:06.025Z,16.80
2017-05-14T00:53:34.315Z,16.80
2017-05-14T00:56:02.887Z,16.80
2017-05-14T00:58:31.166Z,16.70
2017-05-14T01:00:59.475Z,16.70
2017-05-14T01:03:27.775Z,16.60
2017-05-14T01:05:56.054Z,16.60
2017-05-14T01:08:24.367Z,16.60
2017-05-14T01:10:52.657Z,16.60
2017-05-14T01:13:20.970Z,16.50
2017-05-14T01:15:49.283Z,16.50
2017-05-14T01:18:17.570Z,16.40
2017-05-14T01:20:45.859Z,16.40
2017-05-14T01:23:14.161Z,16.40
2017-05-14T01:25:42.444Z,16.40
2017-05-14T01:28:10.746Z,16.40
2017-05-14T01:30:39.014Z,16.30
2017-05-14T01:33:07.315Z,16.30
2017-05-14T01:35:35.605Z,16.30
2017-05-14T01:38:04.139Z,16.20
2017-05-14T01:40:32.483Z,16.20
2017-05-14T01:43:00.794Z,16.20
2017-05-14T01:45:29.101Z,16.10
2017-05-14T01:47:57.380Z,16.00
2017-05-14T01:50:25.733Z,16.00
2017-05-14T01:52:54.130Z,16.00
2017-05-14T01:55:22.459Z,16.00
2017-05-14T01:57:50.760Z,16.00
2017-05-14T02:00:19.059Z,16.00
2017-05-14T02:02:47.363Z,16.00
2017-05-14T02:05:15.702Z,16.00
2017-05-14T02:07:44.032Z,15.90
2017-05-14T02:10:13.070Z,15.90
2017-05-14T02:12:41.369Z,15.90
2017-05-14T02:15:09.660Z,15.90
2017-05-14T02:17:37.963Z,15.80
2017-05-14T02:20:06.383Z,15.80
2017-05-14T02:22:34.677Z,15.80
2017-05-14T02:25:02.969Z,15.80
2017-05-14T02:27:31.255Z,15.80
2017-05-14T02:30:00.310Z,15.70
2017-05-14T02:32:28.614Z,15.80
2017-05-14T02:34:56.898Z,15.80
2017-05-14T02:37:25.179Z,15.80
2017-05-14T02:39:53.468Z,15.70
2017-05-14T02:42:22.498Z,15.60
2017-05-14T02:44:50.789Z,15.50
2017-05-14T02:47:19.108Z,15.40
2017-05-14T02:49:47.409Z,15.30
2017-05-14T02:52:15.714Z,15.40
2017-05-14T02:54:44.018Z,15.40
2017-05-14T02:57:12.332Z,15.50
2017-05-14T02:59:41.349Z,15.40
2017-05-14T03:02:09.650Z,15.40
2017-05-14T03:04:37.973Z,15.30
2017-05-14T03:07:06.261Z,15.30
2017-05-14T03:09:35.293Z,15.30
2017-05-14T03:12:03.595Z,15.40
2017-05-14T03:14:31.905Z,15.40
2017-05-14T03:17:00.260Z,15.30
2017-05-14T03:19:28.552Z,15.40
2017-05-14T03:21:56.838Z,15.40
2017-05-14T03:24:25.182Z,15.40
2017-05-14T03:26:53.477Z,15.40
2017-05-14T03:29:21.781Z,15.40
2017-05-14T03:31:50.067Z,15.40
2017-05-14T03:34:18.367Z,15.40
2017-05-14T03:36:46.681Z,15.40
2017-05-14T03:39:14.999Z,15.40
2017-05-14T03:41:43.619Z,15.30
2017-05-14T03:44:11.957Z,15.30
2017-05-14T03:46:40.233Z,15.30
2017-05-14T03:49:09.298Z,15.30
2017-05-14T03:51:37.613Z,15.30
2017-05-14T03:54:05.910Z,15.20
2017-05-14T03:56:34.247Z,14.90
2017-05-14T03:59:02.537Z,14.90
2017-05-14T04:01:30.812Z,15.00
2017-05-14T04:03:59.123Z,15.10
2017-05-14T04:06:27.428Z,15.10
2017-05-14T04:08:55.720Z,14.90
2017-05-14T04:11:24.040Z,14.60
2017-05-14T04:13:52.355Z,14.40
2017-05-14T04:16:20.631Z,14.30
2017-05-14T04:18:48.931Z,14.20
2017-05-14T04:21:17.223Z,14.20
2017-05-14T04:23:45.526Z,14.10
2017-05-14T04:26:13.808Z,14.10
2017-05-14T04:28:42.101Z,14.20
2017-05-14T04:31:10.395Z,14.30
2017-05-14T04:33:38.692Z,14.40
2017-05-14T04:36:06.979Z,14.50
2017-05-14T04:38:35.977Z,14.70
2017-05-14T04:41:04.259Z,15.00
2017-05-14T04:43:33.105Z,15.20
2017-05-14T04:46:01.445Z,15.20
2017-05-14T04:48:29.752Z,15.10
2017-05-14T04:50:58.038Z,15.00
2017-05-14T04:53:26.323Z,14.90
2017-05-14T04:55:54.604Z,14.80
2017-05-14T04:58:22.911Z,14.70
2017-05-14T05:00:51.975Z,14.60
2017-05-14T05:03:20.275Z,14.50
2017-05-14T05:05:48.549Z,14.50
2017-05-14T05:08:16.928Z,14.50
2017-05-14T05:10:45.210Z,14.50
2017-05-14T05:13:13.484Z,14.60
2017-05-14T05:15:41.761Z,14.70
2017-05-14T05:18:10.055Z,15.00
2017-05-14T05:20:38.351Z,15.10
2017-05-14T05:23:06.651Z,15.20
2017-05-14T05:25:34.949Z,15.40
2017-05-14T05:28:03.244Z,15.50
2017-05-14T05:30:31.553Z,15.60
2017-05-14T05:32:59.846Z,15.70
2017-05-14T05:35:28.147Z,15.80
2017-05-14T05:37:56.426Z,15.90
2017-05-14T05:40:24.714Z,16.00
2017-05-14T05:42:53.027Z,16.00
2017-05-14T05:45:21.307Z,16.20
2017-05-14T05:47:49.613Z,16.30
2017-05-14T05:50:18.052Z,16.40
2017-05-14T05:52:46.394Z,16.50
2017-05-14T05:55:14.698Z,16.40
2017-05-14T05:57:42.988Z,16.50
2017-05-14T06:00:14.896Z,16.40
2017-05-14T06:02:43.194Z,16.50
2017-05-14T06:05:11.527Z,16.50
2017-05-14T06:07:39.848Z,16.50
2017-05-14T06:10:08.141Z,16.60
2017-05-14T06:12:36.423Z,16.70
2017-05-14T06:15:04.886Z,16.70
2017-05-14T06:17:33.194Z,16.70
2017-05-14T06:20:01.470Z,16.80
2017-05-14T06:22:29.779Z,16.90
2017-05-14T06:24:58.600Z,16.90
2017-05-14T06:27:26.910Z,16.90
2017-05-14T06:29:55.384Z,16.90
2017-05-14T06:32:23.662Z,17.10
2017-05-14T06:34:51.953Z,17.20
2017-05-14T06:37:20.251Z,17.20
2017-05-14T06:39:48.551Z,17.20
2017-05-14T06:42:16.919Z,17.20
2017-05-14T06:44:45.211Z,17.10
2017-05-14T06:47:13.510Z,17.10
2017-05-14T06:49:41.812Z,17.10
2017-05-14T06:52:10.273Z,17.10
2017-05-14T06:54:38.588Z,17.10
2017-05-14T06:57:06.901Z,17.10
2017-05-14T06:59:35.203Z,17.00
2017-05-14T07:02:03.531Z,17.10
2017-05-14T07:04:32.635Z,17.20
2017-05-14T07:07:00.946Z,17.30
2017-05-14T07:09:29.322Z,17.30
2017-05-14T07:11:57.686Z,17.20
2017-05-14T07:14:26.000Z,17.30
2017-05-14T07:16:54.277Z,17.50
2017-05-14T07:19:22.595Z,17.60
2017-05-14T07:21:50.925Z,17.70
2017-05-14T07:24:19.303Z,17.80
2017-05-14T07:26:47.622Z,17.90
2017-05-14T07:29:16.688Z,18.00
2017-05-14T07:31:45.114Z,18.10
2017-05-14T07:34:13.430Z,18.30
2017-05-14T07:36:41.912Z,18.40
2017-05-14T07:39:10.229Z,18.40
2017-05-14T07:41:38.552Z,18.50
2017-05-14T07:44:06.845Z,18.60
2017-05-14T07:46:35.153Z,18.70
2017-05-14T07:49:04.349Z,18.50
2017-05-14T07:51:32.684Z,18.70
2017-05-14T07:54:00.978Z,18.90
2017-05-14T07:56:29.336Z,18.90
2017-05-14T07:58:57.658Z,19.00
2017-05-14T08:01:25.980Z,19.00
2017-05-14T08:03:54.288Z,19.10
2017-05-14T08:06:22.591Z,18.90
2017-05-14T08:08:50.867Z,19.10
2017-05-14T08:11:19.240Z,19.30
2017-05-14T08:13:47.578Z,19.40
2017-05-14T08:16:15.880Z,19.40
2017-05-14T08:18:44.205Z,19.40
2017-05-14T08:21:13.310Z,19.50
2017-05-14T08:23:41.603Z,19.70
2017-05-14T08:26:09.905Z,19.70
2017-05-14T08:28:38.202Z,19.70
2017-05-14T08:31:06.475Z,19.70
2017-05-14T08:33:34.926Z,19.60
2017-05-14T08:36:03.225Z,19.50
2017-05-14T08:38:31.548Z,19.40
2017-05-14T08:40:59.853Z,19.40
2017-05-14T08:43:28.201Z,19.40
2017-05-14T08:45:57.410Z,19.40
2017-05-14T08:48:25.751Z,19.70
2017-05-14T08:50:54.074Z,19.90
2017-05-14T08:53:22.405Z,19.90
2017-05-14T08:55:50.696Z,20.00
2017-05-14T08:58:20.035Z,20.20
2017-05-14T09:00:48.405Z,20.30
2017-05-14T09:03:16.700Z,20.40
2017-05-14T09:05:45.014Z,20.60
2017-05-14T09:08:13.332Z,20.80
2017-05-14T09:10:41.610Z,21.00
2017-05-14T09:13:09.940Z,21.20
2017-05-14T09:15:38.614Z,21.20
2017-05-14T09:18:06.953Z,21.30
2017-05-14T09:20:35.264Z,21.30
2017-05-14T09:23:03.549Z,21.20
2017-05-14T09:25:31.832Z,21.20
2017-05-14T09:28:00.310Z,21.10
2017-05-14T09:30:28.674Z,21.30
2017-05-14T09:32:57.014Z,21.50
2017-05-14T09:35:26.368Z,21.50
2017-05-14T09:37:54.649Z,21.50
2017-05-14T09:40:22.987Z,21.60
2017-05-14T09:42:51.267Z,21.60
2017-05-14T09:45:19.539Z,21.80
2017-05-14T09:47:47.869Z,21.90
2017-05-14T09:50:16.180Z,22.30
2017-05-14T09:52:45.212Z,22.50
2017-05-14T09:55:13.550Z,22.60
2017-05-14T09:57:41.894Z,22.60
2017-05-14T10:00:10.188Z,22.80
2017-05-14T10:02:38.523Z,22.70
2017-05-14T10:05:06.828Z,22.70
2017-05-14T10:07:35.091Z,22.90
2017-05-14T10:10:03.378Z,22.60
2017-05-14T10:12:32.104Z,22.80
2017-05-14T10:15:01.168Z,23.10
2017-05-14T10:17:29.459Z,23.30
2017-05-14T10:19:57.746Z,23.50
2017-05-14T10:22:26.058Z,23.60
2017-05-14T10:24:54.605Z,23.90
2017-05-14T10:27:23.648Z,24.10
2017-05-14T10:29:51.957Z,24.10
2017-05-14T10:32:20.251Z,24.00
2017-05-14T10:34:48.564Z,23.90
2017-05-14T10:37:16.878Z,24.70
2017-05-14T10:39:45.179Z,26.00
2017-05-14T10:42:13.512Z,27.30
2017-05-14T10:44:41.780Z,28.60
2017-05-14T10:47:10.055Z,29.70
2017-05-14T10:49:38.373Z,30.00
2017-05-14T10:52:06.671Z,29.10
2017-05-14T10:54:35.005Z,28.10
2017-05-14T10:57:03.301Z,27.20
2017-05-14T10:59:31.642Z,26.20
2017-05-14T11:01:59.998Z,25.50
2017-05-14T11:04:28.297Z,25.10
2017-05-14T11:06:56.618Z,24.70
2017-05-14T11:09:24.943Z,24.80
2017-05-14T11:11:54.000Z,24.80
2017-05-14T11:14:22.575Z,24.50
2017-05-14T11:16:50.885Z,24.30
2017-05-14T11:19:19.226Z,24.20
2017-05-14T11:21:47.532Z,24.10
2017-05-14T11:24:15.836Z,23.80
2017-05-14T11:26:44.922Z,23.70
2017-05-14T11:29:13.994Z,23.60
2017-05-14T11:31:42.332Z,23.70
2017-05-14T11:34:10.642Z,23.60
2017-05-14T11:36:38.933Z,23.80
2017-05-14T11:39:08.135Z,24.10
2017-05-14T11:41:37.985Z,24.10
2017-05-14T11:44:06.257Z,24.10
2017-05-14T11:46:34.594Z,24.00
2017-05-14T11:49:02.922Z,25.20
2017-05-14T11:51:31.233Z,26.30
2017-05-14T11:53:59.520Z,26.40
2017-05-14T11:56:27.804Z,26.90
2017-05-14T11:58:56.185Z,27.20
2017-05-14T12:01:24.475Z,27.10
2017-05-14T12:03:53.505Z,27.10
2017-05-14T12:06:21.797Z,26.40
2017-05-14T12:08:50.072Z,28.00
2017-05-14T12:11:18.335Z,28.70
2017-05-14T12:13:46.612Z,27.40
2017-05-14T12:16:14.940Z,26.20
2017-05-14T12:18:43.227Z,25.40
2017-05-14T12:21:12.241Z,24.70
2017-05-14T12:23:40.509Z,24.30
2017-05-14T12:26:08.924Z,24.10
2017-05-14T12:28:37.241Z,24.40
2017-05-14T12:31:05.593Z,24.30
2017-05-14T12:33:33.876Z,23.90
2017-05-14T12:36:02.170Z,23.50
2017-05-14T12:38:31.923Z,23.10
2017-05-14T12:41:02.351Z,22.80
2017-05-14T12:43:31.435Z,22.80
2017-05-14T12:46:02.138Z,22.50
2017-05-14T12:48:31.930Z,22.30
2017-05-14T12:51:00.267Z,22.20
2017-05-14T12:53:29.334Z,22.00
2017-05-14T12:55:57.712Z,22.10
2017-05-14T12:58:26.001Z,22.00
2017-05-14T13:00:54.291Z,22.10
2017-05-14T13:03:23.086Z,22.00
2017-05-14T13:05:51.436Z,22.00
2017-05-14T13:08:19.985Z,21.90
2017-05-14T13:10:48.259Z,21.80
2017-05-14T13:13:16.885Z,21.80
2017-05-14T13:15:45.178Z,21.70
2017-05-14T13:18:14.828Z,21.60
2017-05-14T13:20:43.110Z,21.70
2017-05-14T13:23:11.444Z,21.70
2017-05-14T13:25:39.741Z,21.70
2017-05-14T13:28:08.057Z,21.50
2017-05-14T13:30:36.537Z,21.50
2017-05-14T13:33:05.640Z,21.50
2017-05-14T13:35:33.963Z,21.40
2017-05-14T13:38:03.004Z,21.30
2017-05-14T13:40:31.298Z,21.40
2017-05-14T13:42:59.628Z,21.30
2017-05-14T13:45:28.007Z,21.10
2017-05-14T13:47:56.319Z,21.10
2017-05-14T13:50:24.656Z,21.00
2017-05-14T13:52:53.704Z,20.90
2017-05-14T13:55:22.031Z,20.70
2017-05-14T13:57:50.371Z,20.70
2017-05-14T14:00:18.752Z,20.70
2017-05-14T14:02:47.116Z,20.60
2017-05-14T14:05:15.495Z,20.50
2017-05-14T14:07:43.784Z,20.40
2017-05-14T14:10:12.088Z,20.10
2017-05-14T14:12:41.309Z,19.90
2017-05-14T14:15:09.644Z,19.70
2017-05-14T14:17:38.009Z,19.50
2017-05-14T14:20:06.467Z,19.50
2017-05-14T14:22:34.753Z,19.50
2017-05-14T14:25:03.119Z,19.50
2017-05-14T14:27:31.492Z,19.40
2017-05-14T14:29:59.805Z,19.40
2017-05-14T14:32:30.968Z,19.40
2017-05-14T14:34:59.284Z,19.40
2017-05-14T14:37:27.595Z,19.30
2017-05-14T14:39:55.932Z,19.10
2017-05-14T14:42:24.289Z,19.00
2017-05-14T14:44:52.631Z,18.80
2017-05-14T14:47:21.030Z,18.70
2017-05-14T14:49:49.430Z,18.70
2017-05-14T14:52:17.809Z,18.70
2017-05-14T14:54:46.144Z,18.80
2017-05-14T14:57:14.467Z,18.80
2017-05-14T14:59:43.508Z,18.90
2017-05-14T15:02:11.928Z,18.90
2017-05-14T15:04:40.252Z,19.00
2017-05-14T15:07:08.577Z,19.10
2017-05-14T15:09:36.913Z,19.20
2017-05-14T15:12:05.320Z,19.30
2017-05-14T15:14:33.732Z,19.20
2017-05-14T15:17:02.060Z,19.30
2017-05-14T15:19:30.396Z,19.30
2017-05-14T15:21:59.763Z,19.20
2017-05-14T15:24:28.090Z,19.10
2017-05-14T15:26:57.443Z,19.10
2017-05-14T15:29:25.756Z,19.00
2017-05-14T15:31:54.804Z,18.90
2017-05-14T15:34:23.158Z,19.00
2017-05-14T15:36:51.479Z,18.90
2017-05-14T15:39:19.858Z,18.70
2017-05-14T15:41:48.288Z,18.80
2017-05-14T15:44:16.626Z,18.90
2017-05-14T15:46:45.113Z,19.00
2017-05-14T15:49:13.502Z,18.90
2017-05-14T15:51:41.838Z,18.80
2017-05-14T15:54:11.238Z,18.80
2017-05-14T15:56:39.519Z,18.90
2017-05-14T15:59:07.849Z,18.90
2017-05-14T16:01:36.155Z,19.00
2017-05-14T16:04:06.514Z,19.00
2017-05-14T16:06:35.666Z,18.90
2017-05-14T16:09:03.988Z,18.80
2017-05-14T16:11:32.328Z,18.80
2017-05-14T16:14:00.714Z,18.80
2017-05-14T16:16:29.026Z,18.80
2017-05-14T16:18:57.373Z,18.70
2017-05-14T16:21:25.688Z,18.70
2017-05-14T16:23:54.004Z,18.80
2017-05-14T16:26:22.335Z,18.80
2017-05-14T16:28:50.669Z,18.80
2017-05-14T16:31:18.979Z,18.90
2017-05-14T16:33:47.924Z,18.80
2017-05-14T16:36:16.955Z,18.80
2017-05-14T16:38:45.268Z,18.80
2017-05-14T16:41:13.569Z,18.80
2017-05-14T16:43:42.764Z,18.90
2017-05-14T16:46:11.848Z,19.10
2017-05-14T16:48:40.148Z,19.10
2017-05-14T16:51:08.442Z,19.20
2017-05-14T16:53:37.738Z,19.20
2017-05-14T16:56:07.003Z,19.20
2017-05-14T16:58:35.323Z,19.30
2017-05-14T17:01:03.627Z,19.30
2017-05-14T17:03:31.994Z,19.40
2017-05-14T17:06:00.272Z,19.50
2017-05-14T17:08:28.632Z,19.60
2017-05-14T17:10:57.082Z,19.70
2017-05-14T17:13:25.383Z,19.70
2017-05-14T17:15:53.684Z,19.80
2017-05-14T17:18:22.065Z,20.00
2017-05-14T17:20:50.766Z,20.40
2017-05-14T17:23:19.105Z,20.70
2017-05-14T17:25:47.399Z,21.00
2017-05-14T17:28:15.710Z,21.00
2017-05-14T17:30:44.096Z,21.00
2017-05-14T17:33:12.384Z,21.10
2017-05-14T17:35:40.697Z,21.10
2017-05-14T17:38:09.032Z,21.10
2017-05-14T17:40:38.730Z,21.00
2017-05-14T17:43:07.092Z,21.00
2017-05-14T17:45:35.401Z,20.90
2017-05-14T17:48:03.734Z,21.00
2017-05-14T17:50:32.072Z,20.90
2017-05-14T17:53:00.376Z,20.90
2017-05-14T17:55:29.640Z,20.90
2017-05-14T17:57:57.972Z,20.80
2017-05-14T18:00:26.355Z,20.80
2017-05-14T18:02:54.665Z,20.70
2017-05-14T18:05:22.978Z,20.60
2017-05-14T18:07:52.024Z,20.70
2017-05-14T18:10:20.334Z,20.70
2017-05-14T18:12:48.685Z,20.70
2017-05-14T18:15:17.067Z,20.60
2017-05-14T18:17:45.378Z,20.50
2017-05-14T18:20:14.455Z,20.40
2017-05-14T18:22:42.790Z,20.40
2017-05-14T18:25:11.217Z,20.30
2017-05-14T18:27:40.277Z,20.20
2017-05-14T18:30:08.690Z,20.20
2017-05-14T18:32:37.145Z,20.20
2017-05-14T18:35:05.485Z,20.10
2017-05-14T18:37:33.812Z,19.90
2017-05-14T18:40:02.125Z,19.80
2017-05-14T18:42:30.533Z,19.70
2017-05-14T18:44:58.964Z,19.60
2017-05-14T18:47:27.284Z,19.50
2017-05-14T18:49:55.608Z,19.40
2017-05-14T18:52:23.982Z,19.30
2017-05-14T18:54:52.348Z,19.20
2017-05-14T18:57:20.658Z,19.10
2017-05-14T18:59:48.991Z,19.00
2017-05-14T19:02:17.321Z,18.90
2017-05-14T19:04:45.712Z,18.80
2017-05-14T19:07:14.078Z,18.70
2017-05-14T19:09:42.372Z,18.60
2017-05-14T19:12:10.810Z,18.50
2017-05-14T19:14:39.110Z,18.40
2017-05-14T19:17:07.436Z,18.30
2017-05-14T19:19:35.744Z,18.20
2017-05-14T19:22:04.059Z,18.10
2017-05-14T19:24:32.409Z,18.10
2017-05-14T19:27:00.719Z,18.10
2017-05-14T19:29:29.068Z,18.00
2017-05-14T19:31:57.442Z,17.90
2017-05-14T19:34:25.776Z,17.90
2017-05-14T19:36:54.120Z,17.80
2017-05-14T19:39:22.454Z,17.80
2017-05-14T19:41:50.758Z,17.70
2017-05-14T19:44:19.145Z,17.60
2017-05-14T19:46:47.508Z,17.60
2017-05-14T19:49:15.916Z,17.50
2017-05-14T19:51:44.280Z,17.50
2017-05-14T19:54:12.593Z,17.40
2017-05-14T19:56:40.940Z,17.40
2017-05-14T19:59:09.339Z,17.30
2017-05-14T20:01:37.699Z,17.40
2017-05-14T20:04:10.836Z,17.40
2017-05-14T20:06:39.319Z,17.30
2017-05-14T20:09:07.657Z,17.20
2017-05-14T20:11:36.019Z,17.20
2017-05-14T20:14:04.345Z,17.20
2017-05-14T20:16:32.681Z,17.20
2017-05-14T20:19:00.993Z,17.10
2017-05-14T20:21:30.148Z,17.00
2017-05-14T20:23:58.526Z,17.10
2017-05-14T20:26:26.892Z,17.10
2017-05-14T20:28:55.195Z,17.10
2017-05-14T20:31:23.511Z,17.10
2017-05-14T20:33:51.906Z,17.10
2017-05-14T20:36:20.285Z,17.10
2017-05-14T20:38:48.608Z,17.00
2017-05-14T20:41:16.980Z,17.00
2017-05-14T20:43:45.303Z,16.90
2017-05-14T20:46:13.650Z,16.90
2017-05-14T20:48:41.949Z,16.90
2017-05-14T20:51:11.007Z,16.90
2017-05-14T20:53:39.384Z,16.90
2017-05-14T20:56:07.813Z,16.80
2017-05-14T20:58:36.861Z,16.80
2017-05-14T21:01:05.178Z,16.80
2017-05-14T21:03:34.255Z,16.80
2017-05-14T21:06:03.462Z,16.80
2017-05-14T21:08:31.756Z,16.70
2017-05-14T21:11:00.093Z,16.70
2017-05-14T21:13:28.765Z,16.60
2017-05-14T21:15:57.044Z,16.60
2017-05-14T21:18:25.384Z,16.50
2017-05-14T21:20:53.913Z,16.60
2017-05-14T21:23:22.220Z,16.50
2017-05-14T21:25:50.537Z,16.50
2017-05-14T21:28:18.829Z,16.40
2017-05-14T21:30:47.141Z,16.40
2017-05-14T21:33:15.446Z,16.40
2017-05-14T21:35:44.808Z,16.40
2017-05-14T21:38:13.114Z,16.30
2017-05-14T21:40:41.408Z,16.30
2017-05-14T21:43:09.833Z,16.20
2017-05-14T21:45:38.179Z,16.30
2017-05-14T21:48:06.608Z,16.30
2017-05-14T21:50:34.945Z,16.20
2017-05-14T21:53:03.468Z,16.20
2017-05-14T21:55:32.097Z,16.10
2017-05-14T21:58:01.634Z,16.10
2017-05-14T22:00:30.505Z,16.10
2017-05-14T22:02:58.842Z,16.10
2017-05-14T22:05:27.172Z,16.00
2017-05-14T22:07:55.497Z,16.00
2017-05-14T22:10:23.839Z,16.00
2017-05-14T22:12:52.147Z,16.00
2017-05-14T22:15:20.479Z,16.00
2017-05-14T22:17:48.824Z,15.90
2017-05-14T22:20:17.115Z,15.90
2017-05-14T22:22:45.444Z,15.90
2017-05-14T22:25:13.772Z,15.80
2017-05-14T22:27:42.934Z,15.80
2017-05-14T22:30:11.222Z,15.90
2017-05-14T22:32:39.537Z,15.80
2017-05-14T22:35:07.843Z,15.80
2017-05-14T22:37:36.130Z,15.90
2017-05-14T22:40:04.445Z,15.80
2017-05-14T22:42:32.751Z,15.80
2017-05-14T22:45:01.058Z,15.80
2017-05-14T22:47:29.360Z,15.80
2017-05-14T22:49:57.787Z,15.70
2017-05-14T22:52:26.108Z,15.70
2017-05-14T22:54:54.478Z,15.70
2017-05-14T22:57:22.809Z,15.70
2017-05-14T22:59:51.847Z,15.70
2017-05-14T23:02:20.119Z,15.70
2017-05-14T23:04:48.419Z,15.80
2017-05-14T23:07:17.605Z,15.80
2017-05-14T23:09:46.303Z,15.80
2017-05-14T23:12:14.607Z,15.70
2017-05-14T23:14:43.829Z,15.80
2017-05-14T23:17:12.111Z,15.80
2017-05-14T23:19:40.486Z,15.80
2017-05-14T23:22:08.846Z,15.80
2017-05-14T23:24:38.533Z,15.70
2017-05-14T23:27:07.296Z,15.60
2017-05-14T23:29:36.324Z,15.60
2017-05-14T23:32:05.357Z,15.60
2017-05-14T23:34:33.687Z,15.60
2017-05-14T23:37:02.674Z,15.60
2017-05-14T23:39:30.961Z,15.70
2017-05-14T23:41:59.319Z,15.60
2017-05-14T23:44:27.631Z,15.60
2017-05-14T23:46:56.661Z,15.50
2017-05-14T23:49:24.953Z,15.60
2017-05-14T23:51:53.268Z,15.60
2017-05-14T23:54:21.549Z,15.50
2017-05-14T23:56:49.875Z,15.50
2017-05-14T23:59:18.183Z,15.50
